Time;durP1;ratioP1;P1;durP2;ratioP2;P2;SDS_P1;SDS_P2;PMS_P1;PMS_P2;Temp;Humidity;BMP_temperature;BMP_pressure;BME280_temperature;BME280_humidity;BME280_pressure;Samples;Min_cycle;Max_cycle;Signal;HPM_P1;HPM_P2
2021/12/25 00:01:09;;;;;;;2.05;0.50;;;-1.50;99.90;;;;;;5095112;28;20538;-74
2021/12/25 00:03:35;;;;;;;3.60;0.68;;;-1.70;99.90;;;;;;5095180;28;20079;-75
2021/12/25 00:06:01;;;;;;;;;;;-1.00;99.90;;;;;;5095508;28;20047;-74
2021/12/25 00:08:29;;;;;;;3.20;0.85;;;-1.80;99.90;;;;;;5094995;28;20469;-75
2021/12/25 00:10:56;;;;;;;0.90;0.70;;;-1.60;99.90;;;;;;5094892;28;20450;-74
2021/12/25 00:13:22;;;;;;;8.13;2.63;;;-1.60;99.90;;;;;;5094795;28;20040;-76
2021/12/25 00:15:49;;;;;;;0.95;0.50;;;-1.60;99.90;;;;;;5095120;28;20047;-76
2021/12/25 00:18:16;;;;;;;1.65;0.68;;;-1.70;99.90;;;;;;5093754;28;20162;-76
2021/12/25 00:20:42;;;;;;;0.43;0.40;;;-1.70;99.90;;;;;;5093814;28;20419;-75
2021/12/25 00:23:08;;;;;;;1.27;0.45;;;-1.70;99.90;;;;;;5094771;28;20044;-75
2021/12/25 00:25:39;;;;;;;0.93;0.50;;;-1.70;99.90;;;;;;5094377;28;20058;-75
2021/12/25 00:31:02;;;;;;;4.50;0.40;;;-1.80;99.90;;;;;;5094726;28;20052;-76
2021/12/25 00:36:12;;;;;;;3.50;0.47;;;-1.90;99.90;;;;;;5093592;28;20089;-73
2021/12/25 00:38:41;;;;;;;2.30;0.50;;;0.00;99.90;;;;;;5094733;28;20075;-73
2021/12/25 00:41:08;;;;;;;1.05;0.50;;;-2.00;99.90;;;;;;5094510;28;20055;-76
2021/12/25 00:43:34;;;;;;;0.93;0.55;;;-2.00;99.90;;;;;;5094459;28;20047;-73
2021/12/25 00:46:00;;;;;;;1.90;0.45;;;-2.10;99.90;;;;;;5094112;28;20127;-74
2021/12/25 00:48:26;;;;;;;1.65;0.50;;;-2.10;99.90;;;;;;5094300;28;20482;-75
2021/12/25 00:50:52;;;;;;;0.70;0.30;;;-2.30;99.90;;;;;;5094305;28;20044;-73
2021/12/25 00:53:18;;;;;;;1.25;0.95;;;-2.20;99.90;;;;;;5094569;28;20368;-74
2021/12/25 00:55:43;;;;;;;4.45;1.23;;;-0.10;99.90;;;;;;5093219;28;20055;-75
2021/12/25 00:58:09;;;;;;;3.53;0.65;;;-1.50;99.90;;;;;;5094160;28;20492;-75
2021/12/25 01:00:35;;;;;;;1.52;0.80;;;-2.20;99.90;;;;;;5093197;28;20502;-74
2021/12/25 01:03:01;;;;;;;2.05;0.50;;;-2.30;99.90;;;;;;5092827;28;20040;-74
2021/12/25 01:05:26;;;;;;;1.05;0.40;;;-2.30;99.90;;;;;;5094065;28;20468;-74
2021/12/25 01:07:52;;;;;;;4.85;0.63;;;-2.40;99.90;;;;;;5093937;28;20044;-75
2021/12/25 01:10:19;;;;;;;1.30;0.63;;;-1.10;99.90;;;;;;5094064;28;20044;-74
2021/12/25 01:15:15;;;;;;;2.90;0.50;;;-2.40;99.90;;;;;;5093900;28;20094;-75
2021/12/25 01:31:08;;;;;;;2.50;0.80;;;-2.40;99.90;;;;;;5051092;28;20053;-74
2021/12/25 01:39:02;;;;;;;1.77;0.50;;;-2.50;99.90;;;;;;5050917;28;20095;-73
2021/12/25 01:49:35;;;;;;;1.70;0.40;;;-0.40;99.90;;;;;;5050800;28;20550;-74
2021/12/25 01:52:02;;;;;;;0.77;0.38;;;-2.60;99.90;;;;;;5034227;28;20128;-73
2021/12/25 01:54:28;;;;;;;3.00;1.52;;;-2.60;99.90;;;;;;5034270;28;20049;-73
2021/12/25 01:56:53;;;;;;;0.82;0.50;;;-2.80;99.90;;;;;;5050884;28;20052;-73
2021/12/25 01:59:19;;;;;;;2.47;0.65;;;-2.60;99.90;;;;;;5050848;28;20060;-75
2021/12/25 02:01:45;;;;;;;3.03;0.70;;;-2.80;99.90;;;;;;5035018;28;20484;-76
2021/12/25 02:04:11;;;;;;;1.70;0.75;;;-2.60;99.90;;;;;;5093163;28;20044;-74
2021/12/25 02:06:37;;;;;;;1.05;0.47;;;-2.70;99.90;;;;;;5092928;28;20472;-73
2021/12/25 02:09:04;;;;;;;4.32;0.40;;;-3.00;99.90;;;;;;5093387;28;20556;-75
2021/12/25 02:11:30;;;;;;;0.88;0.50;;;-2.70;99.90;;;;;;5093237;28;20059;-73
2021/12/25 02:13:58;;;;;;;1.17;0.30;;;-2.80;99.90;;;;;;5093329;28;20044;-73
2021/12/25 02:16:28;;;;;;;1.52;0.50;;;-2.70;99.90;;;;;;5091917;28;20497;-74
2021/12/25 02:21:25;;;;;;;1.23;0.52;;;-2.80;99.90;;;;;;5092946;28;20131;-73
2021/12/25 02:23:50;;;;;;;1.75;0.45;;;-2.80;99.90;;;;;;5091988;28;20058;-73
2021/12/25 02:26:18;;;;;;;0.43;0.32;;;-3.00;99.90;;;;;;5093029;28;20483;-73
2021/12/25 02:28:44;;;;;;;2.47;0.80;;;-2.90;99.90;;;;;;5091947;28;20399;-75
2021/12/25 02:31:12;;;;;;;3.95;0.52;;;-3.00;99.90;;;;;;5091773;28;20036;-74
2021/12/25 02:33:38;;;;;;;2.05;0.50;;;-3.10;99.90;;;;;;5092852;28;20044;-73
2021/12/25 02:36:05;;;;;;;1.73;0.60;;;-3.10;99.90;;;;;;5092863;28;20059;-74
2021/12/25 02:38:32;;;;;;;1.80;0.50;;;-3.00;99.90;;;;;;5093203;28;20044;-74
2021/12/25 02:40:58;;;;;;;0.93;0.45;;;-3.20;99.90;;;;;;5092937;28;20040;-73
2021/12/25 02:43:24;;;;;;;5.18;1.00;;;-3.10;99.90;;;;;;5092924;28;20055;-76
2021/12/25 02:45:54;;;;;;;1.65;0.50;;;-3.10;99.90;;;;;;5091792;28;20044;-73
2021/12/25 02:48:20;;;;;;;4.13;0.80;;;-3.10;99.90;;;;;;5092668;28;20177;-74
2021/12/25 02:50:46;;;;;;;0.80;0.68;;;-3.10;99.90;;;;;;5092793;28;20059;-74
2021/12/25 02:53:13;;;;;;;0.88;0.38;;;-3.20;99.90;;;;;;5093031;28;20387;-74
2021/12/25 02:55:40;;;;;;;2.65;1.02;;;-3.10;99.90;;;;;;5091701;28;20048;-74
2021/12/25 02:58:06;;;;;;;1.35;0.50;;;-3.10;99.90;;;;;;5092796;28;20079;-73
2021/12/25 03:00:42;;;;;;;1.90;0.55;;;-3.20;99.90;;;;;;5096083;28;20051;-74
2021/12/25 03:03:08;;;;;;;2.28;0.40;;;-3.10;99.90;;;;;;5096186;28;20044;-75
2021/12/25 03:05:34;;;;;;;0.63;0.25;;;-3.20;99.90;;;;;;5096199;28;20052;-73
2021/12/25 03:08:00;;;;;;;2.10;0.85;;;-3.10;99.90;;;;;;5096377;28;20090;-73
2021/12/25 03:10:26;;;;;;;0.47;0.30;;;-3.10;99.90;;;;;;5129432;27;20044;-74
2021/12/25 03:13:04;;;;;;;1.98;0.40;;;-3.20;99.90;;;;;;5095279;28;20048;-73
2021/12/25 03:15:41;;;;;;;1.60;0.50;;;-3.30;99.90;;;;;;5096123;28;20048;-77
2021/12/25 03:18:08;;;;;;;2.63;0.60;;;-3.20;99.90;;;;;;5095820;28;20118;-74
2021/12/25 03:20:34;;;;;;;4.07;0.50;;;-3.20;99.90;;;;;;5096136;28;20556;-73
2021/12/25 03:23:00;;;;;;;0.85;0.43;;;-3.20;99.90;;;;;;5096093;28;20047;-74
2021/12/25 03:25:26;;;;;;;1.50;0.52;;;-3.30;99.90;;;;;;5095651;28;20056;-74
2021/12/25 03:27:51;;;;;;;1.85;0.60;;;-3.40;99.90;;;;;;5095921;28;20044;-74
2021/12/25 03:30:20;;;;;;;1.15;1.13;;;-3.20;99.90;;;;;;5095807;28;20047;-74
2021/12/25 03:32:46;;;;;;;5.35;1.67;;;-3.20;99.90;;;;;;5095614;28;20503;-74
2021/12/25 03:35:12;;;;;;;0.55;0.43;;;-1.90;99.90;;;;;;5094838;28;20121;-74
2021/12/25 03:37:37;;;;;;;1.83;1.15;;;-3.40;99.90;;;;;;5094787;28;20055;-77
2021/12/25 03:40:04;;;;;;;1.85;0.40;;;-3.30;99.90;;;;;;5095751;28;20047;-72
2021/12/25 03:42:30;;;;;;;0.60;0.40;;;-3.40;99.90;;;;;;5095594;28;20036;-73
2021/12/25 03:44:56;;;;;;;2.13;0.65;;;-3.40;99.90;;;;;;5095503;28;20051;-74
2021/12/25 03:47:45;;;;;;;1.58;0.50;;;-3.40;99.90;;;;;;5095352;28;20458;-76
2021/12/25 03:58:37;;;;;;;1.17;1.02;;;-3.40;99.90;;;;;;5052757;28;20190;-76
2021/12/25 04:04:04;;;;;;;1.25;0.60;;;-3.40;99.90;;;;;;5036172;28;20061;-77
2021/12/25 04:06:30;;;;;;;1.27;0.40;;;-3.40;99.90;;;;;;5052529;28;20081;-72
2021/12/25 04:08:57;;;;;;;3.33;0.70;;;-3.60;99.90;;;;;;5036124;28;20061;-73
2021/12/25 04:11:29;;;;;;;0.75;0.38;;;-3.40;99.90;;;;;;5036104;28;20056;-75
2021/12/25 04:13:56;;;;;;;0.47;0.30;;;-3.40;99.90;;;;;;5036155;28;20049;-73
2021/12/25 04:16:23;;;;;;;0.45;0.30;;;-3.50;99.90;;;;;;5052453;28;20092;-74
2021/12/25 04:18:49;;;;;;;0.60;0.40;;;-3.40;99.90;;;;;;5052397;28;20053;-73
2021/12/25 04:21:15;;;;;;;0.90;0.85;;;-3.50;99.90;;;;;;5036047;28;20056;-74
2021/12/25 04:23:43;;;;;;;2.55;0.47;;;-3.40;99.90;;;;;;5052064;28;20053;-74
2021/12/25 04:26:09;;;;;;;4.40;0.70;;;-3.50;99.90;;;;;;5052240;28;20048;-73
2021/12/25 04:28:53;;;;;;;2.50;0.65;;;-3.50;99.90;;;;;;5052248;28;20102;-72
2021/12/25 04:50:03;;;;;;;0.85;0.35;;;-3.60;99.90;;;;;;5094287;28;20129;-73
2021/12/25 05:03:43;;;;;;;1.15;0.50;;;-3.70;99.90;;;;;;5094187;28;20449;-74
2021/12/25 05:06:09;;;;;;;1.08;0.90;;;-1.70;99.90;;;;;;5093975;28;20044;-73
2021/12/25 05:08:34;;;;;;;2.47;0.50;;;-2.30;99.90;;;;;;5093937;28;20050;-73
2021/12/25 05:11:00;;;;;;;0.95;0.50;;;-1.60;99.90;;;;;;5093917;28;20044;-74
2021/12/25 05:13:26;;;;;;;0.75;0.50;;;-3.90;99.90;;;;;;5092904;28;20052;-77
2021/12/25 05:15:51;;;;;;;0.60;0.30;;;-4.00;99.90;;;;;;5092649;28;20479;-72
2021/12/25 05:18:17;;;;;;;1.27;0.50;;;-4.10;99.90;;;;;;5093850;28;20047;-75
2021/12/25 05:20:43;;;;;;;2.90;0.80;;;-4.40;99.90;;;;;;5075850;28;20060;-77
2021/12/25 05:23:09;;;;;;;1.75;0.50;;;-4.30;99.90;;;;;;5093279;28;20048;-73
2021/12/25 05:25:35;;;;;;;0.55;0.40;;;-2.10;99.90;;;;;;5092207;28;20063;-74
2021/12/25 05:28:02;;;;;;;1.40;0.57;;;-4.50;99.90;;;;;;5092405;28;20075;-73
2021/12/25 05:30:29;;;;;;;2.25;0.50;;;-4.30;99.90;;;;;;5093390;28;20048;-73
2021/12/25 05:32:55;;;;;;;1.25;0.50;;;-4.30;99.90;;;;;;5092752;28;20048;-74
2021/12/25 05:35:21;;;;;;;4.35;0.50;;;-4.30;99.90;;;;;;5093579;28;20051;-75
2021/12/25 05:37:47;;;;;;;3.65;0.63;;;-3.80;99.90;;;;;;5093442;28;20074;-75
2021/12/25 05:40:13;;;;;;;1.17;0.80;;;-2.90;99.90;;;;;;5126742;27;20122;-73
2021/12/25 05:42:39;;;;;;;2.30;0.75;;;-4.30;99.90;;;;;;5092497;28;20086;-74
2021/12/25 05:45:06;;;;;;;1.88;0.60;;;-4.40;99.90;;;;;;5092390;28;20083;-73
2021/12/25 05:47:32;;;;;;;1.83;0.65;;;-4.30;99.90;;;;;;5093446;28;20044;-74
2021/12/25 05:49:58;;;;;;;0.63;0.50;;;-4.40;99.90;;;;;;5093496;28;20130;-77
2021/12/25 05:52:25;;;;;;;0.85;0.50;;;-4.40;99.90;;;;;;5093432;28;20040;-73
2021/12/25 05:54:51;;;;;;;1.40;0.60;;;-4.40;99.90;;;;;;5093350;28;20127;-72
2021/12/25 05:57:17;;;;;;;3.40;0.68;;;-4.40;99.90;;;;;;5092370;28;20135;-73
2021/12/25 05:59:42;;;;;;;2.47;0.47;;;-4.50;99.90;;;;;;5093171;28;20126;-77
2021/12/25 06:02:08;;;;;;;1.70;0.45;;;-4.40;99.90;;;;;;5093427;28;20054;-74
2021/12/25 06:04:34;;;;;;;1.45;1.35;;;-3.60;99.90;;;;;;5093302;28;20091;-75
2021/12/25 06:07:01;;;;;;;;;;;-4.50;99.90;;;;;;5092440;28;20050;-73
2021/12/25 06:09:27;;;;;;;1.17;0.50;;;-4.50;99.90;;;;;;5126128;28;19924;-74
2021/12/25 06:11:52;;;;;;;4.30;0.47;;;-4.50;99.90;;;;;;5126447;28;20109;-72
2021/12/25 06:14:20;;;;;;;1.63;0.55;;;-4.60;99.90;;;;;;5093181;28;20549;-77
2021/12/25 06:16:47;;;;;;;1.60;0.57;;;-4.40;99.90;;;;;;5126383;28;20403;-74
2021/12/25 06:19:14;;;;;;;3.58;0.73;;;-4.80;99.90;;;;;;5074983;28;20052;-72
2021/12/25 06:21:39;;;;;;;1.30;0.30;;;-4.60;99.90;;;;;;5093117;28;20044;-75
2021/12/25 06:24:06;;;;;;;1.00;0.60;;;-4.50;99.90;;;;;;5093190;28;20108;-73
2021/12/25 06:26:33;;;;;;;1.25;0.70;;;-4.60;99.90;;;;;;5075190;28;20135;-74
2021/12/25 06:28:59;;;;;;;1.98;0.60;;;-4.50;99.90;;;;;;5092971;28;20044;-77
2021/12/25 06:31:25;;;;;;;0.93;0.65;;;-3.70;99.90;;;;;;5092817;28;20059;-73
2021/12/25 06:33:51;;;;;;;2.05;0.70;;;-4.80;99.90;;;;;;5093449;28;20048;-73
2021/12/25 06:36:17;;;;;;;2.00;0.50;;;-4.60;99.90;;;;;;5096993;28;20055;-74
2021/12/25 06:38:43;;;;;;;;;;;-2.90;99.90;;;;;;5097298;28;20433;-77
2021/12/25 06:41:10;;;;;;;3.03;0.70;;;-2.40;99.90;;;;;;5096750;28;19919;-75
2021/12/25 06:43:36;;;;;;;0.73;0.50;;;-4.60;99.90;;;;;;5096660;28;20071;-74
2021/12/25 06:46:02;;;;;;;1.38;0.60;;;-4.50;99.90;;;;;;5096518;28;20480;-75
2021/12/25 06:48:28;;;;;;;1.33;0.60;;;-4.50;99.90;;;;;;5096684;28;20093;-75
2021/12/25 06:50:54;;;;;;;2.78;0.52;;;-3.20;99.90;;;;;;5096821;28;20048;-73
2021/12/25 06:53:19;;;;;;;0.75;0.60;;;-2.30;99.90;;;;;;5078692;28;20483;-73
2021/12/25 06:55:46;;;;;;;2.53;0.70;;;-4.60;99.90;;;;;;5095446;28;20051;-74
2021/12/25 06:58:11;;;;;;;;;;;-4.50;99.90;;;;;;5096880;28;20044;-74
2021/12/25 07:00:37;;;;;;;1.45;0.68;;;-4.50;99.90;;;;;;5096282;28;20341;-75
2021/12/25 07:03:03;;;;;;;1.98;0.75;;;-4.70;99.90;;;;;;5078594;28;20047;-74
2021/12/25 07:05:29;;;;;;;1.80;0.55;;;-4.60;99.90;;;;;;5095194;28;20051;-76
2021/12/25 07:07:55;;;;;;;2.53;0.63;;;-4.30;99.90;;;;;;5095009;28;20052;-74
2021/12/25 07:10:22;;;;;;;2.75;0.90;;;-4.20;99.90;;;;;;5096326;28;20044;-73
2021/12/25 07:12:49;;;;;;;1.23;0.50;;;-4.50;99.90;;;;;;5096205;28;20047;-73
2021/12/25 07:15:15;;;;;;;1.80;0.50;;;-4.80;99.90;;;;;;5096065;28;20048;-74
2021/12/25 07:17:41;;;;;;;2.97;0.60;;;-4.60;99.90;;;;;;5095991;28;20047;-75
2021/12/25 07:20:07;;;;;;;1.92;0.47;;;-4.60;99.90;;;;;;5095108;28;20044;-75
2021/12/25 07:22:33;;;;;;;3.30;0.70;;;-4.60;99.90;;;;;;5094866;28;20054;-77
2021/12/25 07:25:00;;;;;;;0.60;0.30;;;-4.70;99.90;;;;;;5094668;28;20484;-75
2021/12/25 07:27:25;;;;;;;0.95;0.40;;;-4.70;99.90;;;;;;5095531;28;20093;-73
2021/12/25 07:29:51;;;;;;;3.33;0.80;;;-4.70;99.90;;;;;;5095064;28;20437;-73
2021/12/25 07:32:17;;;;;;;2.03;0.80;;;-4.70;99.90;;;;;;5095515;28;20060;-76
2021/12/25 07:34:45;;;;;;;1.10;0.65;;;-4.70;99.90;;;;;;5077655;28;20043;-73
2021/12/25 07:37:13;;;;;;;3.25;0.63;;;-4.50;99.90;;;;;;5095759;28;20117;-76
2021/12/25 07:39:40;;;;;;;3.30;0.60;;;-4.70;99.90;;;;;;5095606;28;20048;-75
2021/12/25 07:42:06;;;;;;;2.03;0.63;;;-4.70;99.90;;;;;;5095644;28;20486;-74
2021/12/25 07:44:32;;;;;;;2.45;0.68;;;-4.60;99.90;;;;;;5095114;28;20086;-74
2021/12/25 07:46:58;;;;;;;1.45;0.47;;;-4.80;99.90;;;;;;5095456;28;20087;-73
2021/12/25 07:49:24;;;;;;;2.13;0.75;;;-4.50;99.90;;;;;;5095861;28;20055;-76
2021/12/25 07:51:50;;;;;;;1.73;0.65;;;-4.50;99.90;;;;;;5095484;28;20048;-74
2021/12/25 07:54:15;;;;;;;1.98;0.52;;;-2.50;99.90;;;;;;5077341;28;20071;-76
2021/12/25 07:56:41;;;;;;;4.65;1.77;;;-4.60;99.90;;;;;;5095292;28;20085;-73
2021/12/25 07:59:07;;;;;;;2.03;0.60;;;-4.80;99.90;;;;;;5094936;28;20048;-74
2021/12/25 08:01:35;;;;;;;0.70;0.50;;;-4.70;99.90;;;;;;5095204;28;20516;-75
2021/12/25 08:04:02;;;;;;;1.60;0.77;;;-4.50;99.90;;;;;;5095105;28;20048;-77
2021/12/25 08:06:28;;;;;;;3.10;0.60;;;-4.40;99.90;;;;;;5095110;28;20047;-76
2021/12/25 08:08:56;;;;;;;3.22;0.60;;;-4.50;99.90;;;;;;5095189;28;20044;-74
2021/12/25 08:11:22;;;;;;;1.38;0.65;;;-4.60;99.90;;;;;;5093812;28;20044;-75
2021/12/25 08:13:48;;;;;;;;;;;-4.70;99.90;;;;;;5095352;28;20052;-74
2021/12/25 08:16:13;;;;;;;4.07;1.17;;;-4.50;99.90;;;;;;5093626;28;20366;-77
2021/12/25 08:18:51;;;;;;;2.35;1.25;;;-3.70;99.90;;;;;;5094622;28;20048;-75
2021/12/25 08:21:17;;;;;;;1.90;0.85;;;-4.70;99.90;;;;;;5094923;28;20044;-73
2021/12/25 08:23:42;;;;;;;1.15;0.60;;;-4.60;99.90;;;;;;5094765;28;20047;-73
2021/12/25 08:26:09;;;;;;;2.10;0.80;;;-4.60;99.90;;;;;;5094709;28;20477;-74
2021/12/25 08:28:35;;;;;;;1.65;0.85;;;-4.90;99.90;;;;;;5093267;28;20137;-73
2021/12/25 08:31:01;;;;;;;3.03;0.75;;;-4.70;99.90;;;;;;5094537;28;20044;-75
2021/12/25 08:33:27;;;;;;;4.15;0.77;;;-4.70;99.90;;;;;;5094771;28;20482;-74
2021/12/25 08:35:52;;;;;;;2.25;0.85;;;-4.90;99.90;;;;;;5094548;28;20047;-73
2021/12/25 08:38:18;;;;;;;2.63;1.10;;;-4.80;99.90;;;;;;5094508;28;20044;-73
2021/12/25 08:40:44;;;;;;;2.65;0.98;;;-4.70;99.90;;;;;;5094427;28;20099;-77
2021/12/25 08:43:10;;;;;;;2.78;0.80;;;-4.70;99.90;;;;;;5094362;28;20039;-76
2021/12/25 08:48:03;;;;;;;2.55;1.00;;;-4.70;99.90;;;;;;5093805;28;20510;-74
2021/12/25 08:50:29;;;;;;;1.80;0.95;;;-4.60;99.90;;;;;;5076473;28;20097;-73
2021/12/25 08:52:55;;;;;;;0.73;0.45;;;-4.80;99.90;;;;;;5094375;28;20437;-74
2021/12/25 08:55:21;;;;;;;1.35;0.70;;;-4.70;99.90;;;;;;5076398;28;20090;-73
2021/12/25 08:57:46;;;;;;;2.97;1.05;;;-4.60;99.90;;;;;;5075178;28;20479;-74
2021/12/25 09:00:12;;;;;;;3.22;0.75;;;-4.60;99.90;;;;;;5094102;28;20058;-75
2021/12/25 09:02:38;;;;;;;1.30;0.65;;;-4.40;99.90;;;;;;5075805;28;20044;-74
2021/12/25 09:05:04;;;;;;;1.23;0.70;;;-4.40;99.90;;;;;;5093980;28;20448;-77
2021/12/25 09:07:30;;;;;;;3.05;0.77;;;-4.20;99.90;;;;;;5093959;28;20054;-74
2021/12/25 09:09:56;;;;;;;3.28;0.70;;;-4.50;99.90;;;;;;5093795;28;20052;-77
2021/12/25 09:12:24;;;;;;;1.85;0.60;;;-4.40;99.90;;;;;;5093925;28;20076;-73
2021/12/25 09:14:49;;;;;;;1.27;0.70;;;-4.30;99.90;;;;;;5075965;28;20533;-78
2021/12/25 09:17:16;;;;;;;2.75;0.70;;;-4.10;99.90;;;;;;5093569;28;20052;-74
2021/12/25 09:19:42;;;;;;;1.50;0.50;;;-4.20;99.90;;;;;;5093803;28;20044;-73
2021/12/25 09:22:11;;;;;;;1.92;0.55;;;-4.30;99.90;;;;;;5093866;28;20091;-75
2021/12/25 09:24:37;;;;;;;2.60;1.42;;;-4.00;99.90;;;;;;5093508;28;20743;-77
2021/12/25 09:27:04;;;;;;;1.90;0.65;;;-3.90;99.90;;;;;;5093683;28;20044;-75
2021/12/25 09:29:30;;;;;;;0.90;0.73;;;-3.50;99.90;;;;;;5093441;28;20048;-74
2021/12/25 09:31:56;;;;;;;1.15;0.60;;;-3.90;99.90;;;;;;5075381;28;20043;-73
2021/12/25 09:34:22;;;;;;;2.17;0.95;;;-3.80;99.90;;;;;;5075888;28;20051;-75
2021/12/25 09:36:47;;;;;;;1.33;0.68;;;-4.00;99.90;;;;;;5093580;28;20395;-73
2021/12/25 09:39:13;;;;;;;1.55;0.77;;;-3.70;99.90;;;;;;5075573;28;20051;-74
2021/12/25 09:41:39;;;;;;;4.13;0.73;;;-3.70;99.90;;;;;;5093442;28;20055;-77
2021/12/25 09:44:05;;;;;;;2.53;1.20;;;-3.70;99.90;;;;;;5093426;28;20483;-73
2021/12/25 09:46:32;;;;;;;2.45;0.75;;;-2.50;99.90;;;;;;5093245;28;20548;-76
2021/12/25 09:49:11;;;;;;;3.08;0.85;;;-3.70;99.90;;;;;;5075423;28;20051;-75
2021/12/25 09:51:37;;;;;;;3.83;0.93;;;-2.30;99.90;;;;;;5075598;28;20056;-76
2021/12/25 09:54:06;;;;;;;2.38;0.70;;;-3.50;99.90;;;;;;5093356;28;20075;-72
2021/12/25 09:56:35;;;;;;;3.47;0.63;;;-3.20;99.90;;;;;;5075217;28;20556;-77
2021/12/25 09:59:03;;;;;;;2.25;0.75;;;-3.60;99.90;;;;;;5075553;28;20051;-75
2021/12/25 10:01:39;;;;;;;1.40;0.60;;;-1.80;99.90;;;;;;5093109;28;20062;-73
2021/12/25 10:04:37;;;;;;;3.87;0.90;;;-3.30;99.90;;;;;;5093323;28;20055;-74
2021/12/25 10:07:25;;;;;;;1.48;0.90;;;-3.30;99.90;;;;;;5010965;28;20089;-73
2021/12/25 10:09:57;;;;;;;1.42;0.98;;;-3.20;99.90;;;;;;5014826;28;20540;-72
2021/12/25 10:12:28;;;;;;;3.45;0.80;;;-3.20;99.90;;;;;;5015330;28;20057;-73
2021/12/25 10:14:54;;;;;;;3.13;0.80;;;-3.30;99.90;;;;;;4998942;28;20054;-74
2021/12/25 10:17:29;;;;;;;3.33;1.10;;;-3.00;99.90;;;;;;5015104;28;20099;-71
2021/12/25 10:20:14;;;;;;;2.03;0.70;;;-3.10;99.90;;;;;;5014658;28;20129;-73
2021/12/25 10:23:01;;;;;;;2.10;0.70;;;-3.00;99.90;;;;;;5014085;28;20405;-74
2021/12/25 10:25:32;;;;;;;;;;;-2.90;99.90;;;;;;5014646;28;20149;-73
2021/12/25 10:28:02;;;;;;;3.55;0.80;;;-3.00;99.90;;;;;;5014431;28;20383;-76
2021/12/25 10:30:28;;;;;;;0.80;0.50;;;-2.90;99.90;;;;;;5014403;28;20539;-75
2021/12/25 10:32:54;;;;;;;3.35;1.40;;;-3.20;99.90;;;;;;5014535;28;20073;-73
2021/12/25 10:35:27;;;;;;;1.45;0.80;;;-1.40;99.90;;;;;;5014366;28;20485;-73
2021/12/25 10:37:55;;;;;;;1.25;0.70;;;-2.80;99.90;;;;;;5014288;28;20061;-73
2021/12/25 10:40:34;;;;;;;4.95;0.70;;;-0.90;99.90;;;;;;5014463;28;20097;-72
2021/12/25 10:43:02;;;;;;;2.40;0.70;;;-2.70;99.90;;;;;;5050820;28;20047;-74
2021/12/25 10:45:30;;;;;;;1.55;0.63;;;-2.80;99.90;;;;;;5096356;28;20048;-76
2021/12/25 10:48:08;;;;;;;1.35;0.80;;;-2.70;99.90;;;;;;5078394;28;20087;-74
2021/12/25 10:50:41;;;;;;;3.67;0.60;;;-2.60;99.90;;;;;;5096494;28;20055;-75
2021/12/25 10:53:30;;;;;;;1.75;0.93;;;-1.00;99.90;;;;;;5078432;28;20052;-76
2021/12/25 10:56:12;;;;;;;1.00;0.50;;;-2.60;99.90;;;;;;5096176;28;20052;-74
2021/12/25 10:58:39;;;;;;;1.75;0.70;;;-2.60;99.90;;;;;;5095967;28;20399;-74
2021/12/25 11:01:07;;;;;;;1.83;0.60;;;-2.50;99.90;;;;;;5078132;28;20056;-75
2021/12/25 11:03:40;;;;;;;1.23;0.57;;;-2.80;99.90;;;;;;5061411;28;20503;-75
2021/12/25 11:06:13;;;;;;;2.03;0.57;;;-2.60;99.90;;;;;;5077905;28;20048;-75
2021/12/25 11:08:40;;;;;;;4.20;0.70;;;-2.40;99.90;;;;;;5096249;28;20382;-73
2021/12/25 11:11:07;;;;;;;1.25;0.77;;;-2.30;99.90;;;;;;5096077;28;20097;-75
2021/12/25 11:13:34;;;;;;;3.22;1.00;;;-1.70;99.90;;;;;;5096000;28;20040;-73
2021/12/25 11:16:28;;;;;;;2.17;0.60;;;-2.60;99.90;;;;;;5061436;28;20048;-75
2021/12/25 11:19:14;;;;;;;3.13;0.60;;;-1.50;99.90;;;;;;5095725;28;20044;-75
2021/12/25 11:21:54;;;;;;;2.85;0.70;;;-1.80;99.90;;;;;;5095297;28;20048;-72
2021/12/25 11:24:32;;;;;;;2.33;0.63;;;-2.10;99.90;;;;;;5095343;28;20064;-74
2021/12/25 11:27:03;;;;;;;2.45;0.63;;;-1.60;99.90;;;;;;5095639;28;20530;-75
2021/12/25 11:29:32;;;;;;;3.80;0.47;;;-1.80;99.90;;;;;;5060882;28;20407;-75
2021/12/25 11:32:00;;;;;;;2.92;1.25;;;-2.10;99.90;;;;;;5095737;28;20056;-74
2021/12/25 11:34:35;;;;;;;1.23;0.60;;;-2.00;99.90;;;;;;5095562;28;20086;-74
2021/12/25 11:37:02;;;;;;;2.33;0.80;;;-2.10;99.90;;;;;;5095392;28;20048;-73
2021/12/25 11:39:29;;;;;;;0.63;0.40;;;-1.90;99.90;;;;;;5077328;28;20473;-73
2021/12/25 11:42:01;;;;;;;1.40;0.50;;;-2.50;99.90;;;;;;5095344;28;20507;-73
2021/12/25 11:44:44;;;;;;;3.50;0.82;;;-1.90;99.90;;;;;;5095480;28;20074;-73
2021/12/25 11:47:29;;;;;;;3.20;0.60;;;-1.90;99.90;;;;;;5077182;28;20083;-72
2021/12/25 11:49:58;;;;;;;2.35;1.20;;;-1.80;99.90;;;;;;5077144;28;20513;-73
2021/12/25 11:52:29;;;;;;;3.90;0.88;;;-1.80;99.90;;;;;;5095079;28;20040;-75
2021/12/25 12:00:35;;;;;;;3.00;0.75;;;-0.70;99.90;;;;;;5094999;28;20085;-74
2021/12/25 12:03:01;;;;;;;1.03;0.50;;;-1.20;99.90;;;;;;5076947;28;20044;-74
2021/12/25 12:05:33;;;;;;;2.92;0.70;;;0.30;99.90;;;;;;5094684;28;20134;-74
2021/12/25 12:08:08;;;;;;;1.30;0.40;;;-1.60;99.90;;;;;;5076658;28;20493;-75
2021/12/25 12:10:45;;;;;;;0.80;0.47;;;-1.50;99.90;;;;;;5076675;28;20126;-76
2021/12/25 12:13:32;;;;;;;1.70;0.63;;;0.50;99.90;;;;;;5094741;28;20048;-76
2021/12/25 12:16:01;;;;;;;2.75;1.27;;;-1.40;99.90;;;;;;5094904;28;20387;-75
2021/12/25 12:18:31;;;;;;;7.32;0.93;;;-1.40;99.90;;;;;;5094697;28;20101;-72
2021/12/25 12:21:12;;;;;;;2.95;0.60;;;-1.40;99.90;;;;;;5059665;28;20495;-75
2021/12/25 12:26:13;;;;;;;2.20;0.50;;;-1.30;99.90;;;;;;5094785;28;20060;-75
2021/12/25 12:28:44;;;;;;;3.05;0.55;;;-1.20;99.90;;;;;;5094679;28;20044;-75
2021/12/25 12:31:33;;;;;;;1.60;0.85;;;-1.20;99.90;;;;;;5094685;28;20051;-73
2021/12/25 12:33:58;;;;;;;1.95;0.82;;;-1.30;99.90;;;;;;5094450;28;20105;-76
2021/12/25 12:36:26;;;;;;;1.63;0.60;;;-1.30;99.90;;;;;;5094376;28;20044;-73
2021/12/25 12:39:11;;;;;;;1.25;0.75;;;-1.30;99.90;;;;;;5076683;28;20399;-74
2021/12/25 12:41:42;;;;;;;2.13;0.40;;;-1.30;99.90;;;;;;5076433;28;20127;-74
2021/12/25 12:44:10;;;;;;;4.43;0.50;;;0.10;99.90;;;;;;5076359;28;20083;-75
2021/12/25 12:46:48;;;;;;;2.28;0.70;;;-1.30;99.90;;;;;;5094215;28;20130;-73
2021/12/25 12:49:16;;;;;;;3.88;0.65;;;-1.30;99.90;;;;;;5094230;28;20128;-76
2021/12/25 12:51:42;;;;;;;3.60;0.68;;;-1.20;99.90;;;;;;5075788;28;20495;-73
2021/12/25 12:54:08;;;;;;;1.10;0.70;;;-1.20;99.90;;;;;;5094232;28;20039;-75
2021/12/25 12:56:36;;;;;;;2.20;0.70;;;-1.20;99.90;;;;;;5094219;28;20123;-73
2021/12/25 12:59:03;;;;;;;3.50;0.50;;;-1.30;99.90;;;;;;5076174;28;20487;-74
2021/12/25 13:01:29;;;;;;;5.82;0.52;;;-1.30;99.90;;;;;;5059336;28;20467;-74
2021/12/25 13:03:57;;;;;;;0.73;0.28;;;-1.30;99.90;;;;;;5093935;28;20052;-74
2021/12/25 13:06:27;;;;;;;5.43;0.60;;;-1.30;99.90;;;;;;5076136;28;20454;-73
2021/12/25 13:08:53;;;;;;;3.33;0.60;;;-1.40;99.90;;;;;;5094169;28;20051;-76
2021/12/25 13:11:30;;;;;;;;;;;-1.30;99.90;;;;;;5093802;28;20075;-75
2021/12/25 13:14:00;;;;;;;0.90;0.70;;;-1.30;99.90;;;;;;5091800;28;19920;-74
2021/12/25 13:16:43;;;;;;;1.63;0.60;;;-1.20;99.90;;;;;;5093422;28;20526;-75
2021/12/25 13:19:09;;;;;;;2.65;0.65;;;-1.20;99.90;;;;;;5093904;28;20044;-77
2021/12/25 13:21:36;;;;;;;1.88;0.68;;;-0.60;99.90;;;;;;5092924;28;20515;-74
2021/12/25 13:24:14;;;;;;;0.95;0.30;;;0.20;99.90;;;;;;5093729;28;20044;-74
2021/12/25 13:26:48;;;;;;;2.88;0.40;;;-1.20;99.90;;;;;;5093228;28;20418;-76
2021/12/25 13:29:23;;;;;;;1.85;0.63;;;-1.30;99.90;;;;;;5075258;28;20044;-77
2021/12/25 13:31:51;;;;;;;1.95;1.00;;;-1.40;99.90;;;;;;5093708;28;20044;-75
2021/12/25 13:34:21;;;;;;;2.88;0.70;;;-1.30;99.90;;;;;;5093551;28;20133;-75
2021/12/25 13:36:54;;;;;;;4.30;0.65;;;-1.40;99.90;;;;;;5093124;28;20091;-76
2021/12/25 13:39:26;;;;;;;1.02;0.68;;;-0.60;99.90;;;;;;5093612;28;20088;-76
2021/12/25 13:41:55;;;;;;;4.15;0.85;;;-1.20;99.90;;;;;;5093344;28;20130;-73
2021/12/25 13:44:27;;;;;;;3.80;0.98;;;-1.30;99.90;;;;;;5093162;28;20044;-72
2021/12/25 13:47:02;;;;;;;0.82;0.50;;;-1.30;99.90;;;;;;5058632;28;20055;-74
2021/12/25 13:49:36;;;;;;;2.55;0.60;;;-1.30;99.90;;;;;;5075546;28;20044;-76
2021/12/25 13:52:06;;;;;;;0.73;0.60;;;-1.30;99.90;;;;;;5075071;28;20070;-74
2021/12/25 13:54:34;;;;;;;2.92;0.95;;;-1.40;99.90;;;;;;5093161;28;20048;-73
2021/12/25 13:57:01;;;;;;;1.80;0.75;;;0.60;99.90;;;;;;5058546;28;20044;-76
2021/12/25 13:59:27;;;;;;;1.38;0.70;;;-1.40;99.90;;;;;;5093256;28;20055;-74
2021/12/25 14:02:06;;;;;;;3.30;2.15;;;-1.40;99.90;;;;;;5093213;28;20130;-77
2021/12/25 14:04:36;;;;;;;2.45;0.85;;;-1.30;99.90;;;;;;5093332;28;20077;-73
2021/12/25 14:07:02;;;;;;;3.40;1.20;;;-1.30;99.90;;;;;;5074869;28;20079;-77
2021/12/25 14:09:28;;;;;;;4.03;2.15;;;-1.40;99.90;;;;;;5093313;28;20040;-74
2021/12/25 14:11:56;;;;;;;2.72;0.63;;;-0.50;99.90;;;;;;5093276;28;20052;-74
2021/12/25 14:14:26;;;;;;;0.93;0.70;;;-1.40;99.90;;;;;;5092965;28;20456;-74
2021/12/25 14:16:53;;;;;;;1.73;0.60;;;-1.40;99.90;;;;;;5093067;28;20078;-75
2021/12/25 14:19:24;;;;;;;3.35;0.90;;;-1.40;99.90;;;;;;5093043;28;20509;-75
2021/12/25 14:21:59;;;;;;;1.42;0.60;;;-1.50;99.90;;;;;;5092689;28;20048;-73
2021/12/25 14:24:38;;;;;;;1.70;0.93;;;-1.50;99.90;;;;;;5092972;28;20048;-75